Time;durP1;ratioP1;P1;durP2;ratioP2;P2;SDS_P1;SDS_P2;PMS_P1;PMS_P2;Temp;Humidity;BMP_temperature;BMP_pressure;BME280_temperature;BME280_humidity;BME280_pressure;Samples;Min_cycle;Max_cycle;Signal;HPM_P1;HPM_P2
2022/01/06 00:00:30;;;;;;;4.47;1.80;;;;;;;4.78;79.69;99952.69;5017467;28;20044;-90
2022/01/06 00:02:56;;;;;;;2.15;1.70;;;;;;;4.74;79.88;99952.69;5017156;28;20493;-90
2022/01/06 00:05:22;;;;;;;4.05;1.92;;;;;;;4.73;79.51;99956.16;5014414;28;20033;-89
2022/01/06 00:07:48;;;;;;;4.47;1.67;;;;;;;4.69;79.68;99940.47;5027735;28;20075;-89
2022/01/06 00:10:14;;;;;;;5.50;1.70;;;;;;;4.74;79.70;99954.44;5016555;28;20032;-89
2022/01/06 00:12:50;;;;;;;3.03;1.50;;;;;;;4.71;79.61;99929.16;5013279;28;20464;-90
2022/01/06 00:15:39;;;;;;;2.92;1.52;;;;;;;4.74;79.46;99946.59;5016216;28;20025;-90
2022/01/06 00:25:45;;;;;;;1.73;1.30;;;;;;;4.72;79.50;99943.97;5030846;28;20570;-89
2022/01/06 00:28:12;;;;;;;4.25;2.20;;;;;;;4.75;79.52;99950.94;5033055;28;20029;-89
2022/01/06 00:30:37;;;;;;;0.93;0.85;;;;;;;4.72;79.28;99946.59;5032694;28;20026;-89
2022/01/06 00:33:03;;;;;;;2.90;1.60;;;;;;;4.73;79.37;99953.56;5013939;28;20034;-89
2022/01/06 00:35:28;;;;;;;1.95;1.52;;;;;;;4.74;80.00;99960.50;5023285;28;20041;-90
2022/01/06 00:37:54;;;;;;;4.13;1.33;;;;;;;4.71;79.50;99955.28;5009749;28;20032;-89
2022/01/06 00:40:20;;;;;;;2.53;1.17;;;;;;;4.71;79.60;99963.09;5016091;28;20029;-89
2022/01/06 00:42:45;;;;;;;3.17;1.65;;;;;;;4.70;79.80;99953.53;5009028;28;20025;-89
2022/01/06 00:45:11;;;;;;;3.35;1.75;;;;;;;4.64;79.47;99952.66;5016002;28;20025;-89
2022/01/06 00:47:37;;;;;;;4.90;1.52;;;;;;;4.61;79.83;99946.53;5014545;28;20037;-90
2022/01/06 00:50:03;;;;;;;1.83;1.15;;;;;;;4.68;79.52;99963.13;5014317;28;20088;-89
2022/01/06 00:52:29;;;;;;;3.05;1.30;;;;;;;4.68;80.01;99968.34;5027691;28;20044;-89
2022/01/06 00:54:55;;;;;;;2.47;1.35;;;;;;;4.70;79.54;99965.75;5014728;28;20026;-89
2022/01/06 00:57:20;;;;;;;4.90;1.60;;;;;;;4.67;79.91;99971.81;5012970;28;20479;-89
2022/01/06 00:59:46;;;;;;;2.00;1.20;;;;;;;4.70;79.54;99971.81;5021816;28;20025;-89
2022/01/06 01:02:12;;;;;;;1.42;1.20;;;;;;;4.63;79.53;99964.81;5011814;28;20053;-89
2022/01/06 01:04:37;;;;;;;2.15;1.10;;;;;;;4.67;79.90;99974.41;5016019;28;20510;-88
2022/01/06 01:07:03;;;;;;;4.95;1.27;;;;;;;4.68;79.61;99978.81;5015541;28;20025;-89
2022/01/06 01:09:30;;;;;;;2.95;1.50;;;;;;;4.68;79.90;99978.81;5011236;28;20033;-89
2022/01/06 01:12:01;;;;;;;2.75;1.20;;;;;;;4.63;79.56;99980.50;5016083;28;20022;-89
2022/01/06 01:14:29;;;;;;;2.53;1.60;;;;;;;4.64;79.43;99971.81;5016270;28;20044;-89
2022/01/06 01:16:58;;;;;;;2.72;1.30;;;;;;;4.70;79.68;100012.78;5019068;28;20107;-89
2022/01/06 01:19:24;;;;;;;3.20;1.20;;;;;;;4.69;79.49;99996.22;5014157;28;20465;-89
2022/01/06 01:21:51;;;;;;;1.40;1.30;;;;;;;4.70;79.84;100007.53;5030372;28;20029;-89
2022/01/06 01:24:22;;;;;;;3.03;1.20;;;;;;;4.68;79.32;100004.91;5026169;28;20025;-89
2022/01/06 01:26:48;;;;;;;2.00;1.10;;;;;;;4.69;79.66;100001.44;5016042;28;20040;-89
2022/01/06 01:29:17;;;;;;;2.08;1.58;;;;;;;4.69;80.21;100011.88;5010207;28;20032;-89
2022/01/06 01:31:47;;;;;;;1.80;1.02;;;;;;;4.66;80.02;100005.75;5036266;28;20072;-89
2022/01/06 01:34:13;;;;;;;1.90;1.10;;;;;;;4.61;79.79;100003.16;5015844;28;20018;-90
2022/01/06 01:36:39;;;;;;;4.13;1.33;;;;;;;4.68;80.03;100025.81;5013261;28;20037;-88
2022/01/06 01:39:05;;;;;;;2.90;1.25;;;;;;;4.68;79.80;100028.44;5032650;28;20021;-89
2022/01/06 01:41:31;;;;;;;2.63;1.23;;;;;;;4.67;79.58;100026.66;5012360;28;20036;-88
2022/01/06 01:43:57;;;;;;;1.13;1.02;;;;;;;4.62;79.78;100031.00;5024727;28;20808;-89
2022/01/06 01:46:30;;;;;;;1.77;1.27;;;;;;;4.67;79.53;100050.19;5030983;28;20049;-89
2022/01/06 01:50:10;;;;;;;2.20;1.20;;;;;;;4.66;79.73;100043.22;5012583;28;20142;-89
2022/01/06 01:51:52;;;;;;;1.85;1.27;;;;;;;4.67;80.00;100049.31;5010270;28;20113;-89
2022/01/06 01:54:18;;;;;;;1.08;1.00;;;;;;;4.64;79.65;100047.56;5024677;28;20106;-89
2022/01/06 01:56:44;;;;;;;1.10;1.00;;;;;;;4.66;79.89;100048.44;5015246;28;20048;-89
2022/01/06 01:59:11;;;;;;;2.67;1.30;;;;;;;4.68;79.60;100051.06;5012126;28;20101;-89
2022/01/06 02:01:36;;;;;;;1.20;1.10;;;;;;;4.58;79.51;100039.69;5013178;28;20025;-89
2022/01/06 02:04:02;;;;;;;1.30;1.10;;;;;;;4.64;79.54;100050.19;5014298;28;20040;-88
2022/01/06 02:06:28;;;;;;;3.88;1.67;;;;;;;4.60;79.67;100064.06;5023416;28;20030;-89
2022/01/06 02:08:54;;;;;;;3.47;1.50;;;;;;;4.64;79.68;100068.47;5013195;28;20101;-89
2022/01/06 02:11:37;;;;;;;1.85;1.48;;;;;;;4.56;79.82;100052.75;5014132;28;20033;-90
2022/01/06 02:14:05;;;;;;;2.63;1.42;;;;;;;4.58;79.57;100066.69;5011623;28;20869;-89
2022/01/06 02:16:31;;;;;;;2.38;1.30;;;;;;;4.62;79.70;100078.03;5013462;28;20159;-90
2022/01/06 02:18:57;;;;;;;2.15;1.25;;;;;;;4.57;79.75;100077.97;5013693;28;20112;-89
2022/01/06 02:21:22;;;;;;;3.55;1.73;;;;;;;4.60;79.82;100074.50;5012801;28;20026;-89
2022/01/06 02:23:48;;;;;;;4.28;1.23;;;;;;;4.59;79.96;100078.00;5010326;28;20056;-90
2022/01/06 02:26:14;;;;;;;1.10;1.00;;;;;;;4.64;79.89;100084.16;5013475;28;20045;-89
2022/01/06 02:28:40;;;;;;;2.35;1.10;;;;;;;4.65;79.77;100087.59;5016833;28;20029;-89
2022/01/06 02:31:06;;;;;;;1.33;1.23;;;;;;;4.64;79.69;100086.75;5018441;28;20025;-90
2022/01/06 02:33:32;;;;;;;4.05;1.05;;;;;;;4.51;79.74;100070.13;5013663;28;20025;-89
2022/01/06 02:35:58;;;;;;;1.85;0.98;;;;;;;4.63;79.88;100090.22;5016021;28;20365;-89
2022/01/06 02:38:24;;;;;;;3.22;1.73;;;;;;;4.60;80.07;100100.63;5035823;28;20060;-89
2022/01/06 02:40:49;;;;;;;1.77;1.67;;;;;;;4.63;79.99;100134.63;5019880;28;20033;-89
2022/01/06 02:43:18;;;;;;;3.17;1.38;;;;;;;4.58;79.86;100138.94;5031419;28;20044;-90
2022/01/06 02:45:45;;;;;;;3.38;1.30;;;;;;;4.65;80.08;100166.88;5019274;28;21646;-91
2022/01/06 02:48:10;;;;;;;5.40;1.58;;;;;;;4.61;80.02;100175.53;5021674;28;20394;-92
2022/01/06 02:50:38;;;;;;;2.33;1.95;;;;;;;4.56;79.69;100162.44;5022340;28;20113;-92
2022/01/06 02:53:05;;;;;;;3.60;1.35;;;;;;;4.63;79.66;100176.41;5014637;28;20029;-92
2022/01/06 02:55:32;;;;;;;3.85;1.92;;;;;;;4.59;79.61;100167.69;5019587;28;20040;-92
2022/01/06 02:57:58;;;;;;;2.03;1.40;;;;;;;4.59;79.61;100172.91;5012835;28;20029;-92
2022/01/06 03:00:23;;;;;;;2.47;1.45;;;;;;;4.57;79.64;100177.25;5012057;28;20128;-90
2022/01/06 03:02:49;;;;;;;2.97;1.35;;;;;;;4.59;79.50;100195.53;5011049;28;20033;-92
2022/01/06 03:05:16;;;;;;;2.53;1.27;;;;;;;4.53;79.98;100174.63;5015387;28;20037;-91
2022/01/06 03:07:42;;;;;;;2.42;1.27;;;;;;;4.62;80.07;100204.28;5015699;28;20041;-91
2022/01/06 03:10:11;;;;;;;2.28;1.90;;;;;;;4.58;79.62;100201.63;5016476;28;20026;-91
2022/01/06 03:12:40;;;;;;;3.58;1.40;;;;;;;4.59;79.70;100208.59;5024941;28;20077;-91
2022/01/06 03:15:20;;;;;;;2.30;1.67;;;;;;;4.58;79.60;100228.66;5012216;28;20055;-91
2022/01/06 03:17:51;;;;;;;3.60;1.90;;;;;;;4.58;79.59;100228.66;5017521;28;20033;-92
2022/01/06 03:20:18;;;;;;;4.00;2.17;;;;;;;4.59;79.84;100229.50;5015435;28;20117;-91
2022/01/06 03:22:44;;;;;;;2.30;1.52;;;;;;;4.56;79.76;100226.84;5015067;28;20025;-90
2022/01/06 03:25:12;;;;;;;1.92;1.10;;;;;;;4.59;79.81;100234.72;5017342;28;20027;-90
2022/01/06 03:27:39;;;;;;;1.73;1.30;;;;;;;4.56;79.85;100242.53;5015049;28;20083;-90
2022/01/06 03:30:07;;;;;;;1.58;1.45;;;;;;;4.58;79.56;100256.50;5027056;28;20035;-90
2022/01/06 03:32:32;;;;;;;1.98;0.93;;;;;;;4.56;79.75;100264.31;5008438;28;20036;-90
2022/01/06 03:34:58;;;;;;;1.55;1.45;;;;;;;4.55;79.98;100274.75;5016341;28;20033;-89
2022/01/06 03:37:23;;;;;;;1.52;1.42;;;;;;;4.53;79.66;100272.13;5031885;28;20101;-89
2022/01/06 03:40:08;;;;;;;4.22;1.40;;;;;;;4.58;79.78;100290.44;5013282;28;20164;-89
2022/01/06 03:42:35;;;;;;;3.28;1.55;;;;;;;4.55;79.51;100295.63;5015087;28;20037;-89
2022/01/06 03:45:04;;;;;;;1.50;1.40;;;;;;;4.53;79.64;100286.94;5030070;28;20021;-89
2022/01/06 03:47:30;;;;;;;1.42;1.30;;;;;;;4.54;79.61;100291.28;5015904;28;20029;-89
2022/01/06 03:49:55;;;;;;;1.58;1.48;;;;;;;4.53;79.67;100292.16;5020286;28;20099;-89
2022/01/06 03:52:21;;;;;;;2.28;1.45;;;;;;;4.54;79.32;100304.34;5019177;28;20156;-89
2022/01/06 03:54:46;;;;;;;2.17;1.50;;;;;;;4.40;79.39;100286.78;5016480;28;20400;-89
2022/01/06 03:57:12;;;;;;;1.40;1.30;;;;;;;4.46;79.79;100299.03;5011830;28;20026;-88
2022/01/06 03:59:37;;;;;;;1.67;1.52;;;;;;;4.45;79.39;100299.91;5009825;28;21519;-88
2022/01/06 04:02:04;;;;;;;2.13;1.40;;;;;;;4.55;79.34;100332.19;5011072;28;20365;-88
2022/01/06 04:04:29;;;;;;;1.33;1.20;;;;;;;4.52;79.20;100332.16;5013956;28;20124;-88
2022/01/06 04:06:55;;;;;;;2.85;1.38;;;;;;;4.52;79.59;100347.84;5016033;28;20151;-88
2022/01/06 04:09:20;;;;;;;1.65;1.27;;;;;;;4.48;79.78;100342.59;5016221;28;20395;-88
2022/01/06 04:11:46;;;;;;;2.28;1.55;;;;;;;4.51;79.36;100352.22;5015620;28;20456;-88
2022/01/06 04:14:11;;;;;;;1.48;1.38;;;;;;;4.53;79.73;100365.28;5014697;28;20489;-88
2022/01/06 04:16:39;;;;;;;2.97;1.35;;;;;;;4.49;79.42;100361.75;5016621;28;20029;-88
2022/01/06 04:19:05;;;;;;;4.22;1.75;;;;;;;4.53;79.00;100376.59;5010953;28;20044;-88
2022/01/06 04:21:30;;;;;;;2.00;1.40;;;;;;;4.43;79.48;100359.94;5019717;28;20037;-88
2022/01/06 04:23:56;;;;;;;1.27;1.17;;;;;;;4.38;79.47;100359.03;5014918;28;20024;-88
2022/01/06 04:26:21;;;;;;;1.67;1.58;;;;;;;4.51;79.47;100390.50;5010152;28;20022;-88
2022/01/06 04:28:47;;;;;;;1.48;1.38;;;;;;;4.40;79.69;100375.56;5022786;28;20035;-88
2022/01/06 04:31:12;;;;;;;1.77;1.58;;;;;;;4.48;79.73;100386.13;5013348;28;20025;-88
2022/01/06 04:33:38;;;;;;;2.78;1.75;;;;;;;4.44;79.32;100387.81;5015229;28;20056;-88
2022/01/06 04:36:04;;;;;;;1.70;1.58;;;;;;;4.42;79.39;100389.53;5008350;28;20491;-88
2022/01/06 04:38:29;;;;;;;1.45;1.35;;;;;;;4.44;79.64;100403.47;5023484;28;20153;-88
2022/01/06 04:40:56;;;;;;;3.17;1.40;;;;;;;4.48;79.44;100420.97;5021291;28;20024;-88
2022/01/06 04:43:22;;;;;;;1.38;1.27;;;;;;;4.43;79.57;100413.94;5015488;28;20029;-88
2022/01/06 04:45:48;;;;;;;2.05;1.88;;;;;;;4.46;79.54;100427.88;5013153;28;20393;-88
2022/01/06 04:48:13;;;;;;;2.20;1.70;;;;;;;4.37;79.67;100414.72;5013069;28;20064;-88
2022/01/06 04:50:39;;;;;;;3.35;1.50;;;;;;;4.43;79.51;100432.22;5025404;28;20021;-88
2022/01/06 04:53:04;;;;;;;1.95;1.48;;;;;;;4.42;79.78;100433.03;5023791;28;20546;-88
2022/01/06 04:55:30;;;;;;;2.95;1.65;;;;;;;4.29;79.06;100406.78;5013039;28;20121;-88
2022/01/06 04:57:55;;;;;;;6.45;1.75;;;;;;;4.44;79.37;100445.25;5015620;28;20025;-88
2022/01/06 05:00:21;;;;;;;3.35;1.70;;;;;;;4.36;79.59;100439.97;5011428;28;20113;-88
2022/01/06 05:02:46;;;;;;;1.35;1.25;;;;;;;4.39;79.64;100452.16;5009922;28;20117;-88
2022/01/06 05:05:13;;;;;;;2.55;1.60;;;;;;;4.39;79.26;100454.78;5012758;28;20029;-88
2022/01/06 05:07:40;;;;;;;2.28;1.60;;;;;;;4.38;79.30;100454.75;5015231;28;20026;-89
2022/01/06 05:10:07;;;;;;;1.65;1.55;;;;;;;4.36;79.19;100462.56;5010363;28;20026;-88
2022/01/06 05:12:33;;;;;;;1.65;1.35;;;;;;;4.35;79.27;100468.66;5026167;28;20032;-88
2022/01/06 05:14:59;;;;;;;2.47;1.67;;;;;;;4.32;79.36;100469.50;5014089;28;20025;-88
2022/01/06 05:17:25;;;;;;;3.33;1.30;;;;;;;4.42;79.84;100477.44;5008077;28;20051;-88
2022/01/06 05:19:50;;;;;;;1.40;1.30;;;;;;;4.36;79.39;100483.47;5008432;28;20040;-88
2022/01/06 05:22:16;;;;;;;2.60;1.42;;;;;;;4.41;79.33;100486.13;5022665;28;20378;-88
2022/01/06 05:24:41;;;;;;;1.90;1.58;;;;;;;4.39;79.42;100490.44;5014123;28;20057;-88
2022/01/06 05:27:10;;;;;;;1.33;1.23;;;;;;;4.38;79.54;100492.22;5014792;28;20108;-87
2022/01/06 05:29:36;;;;;;;2.55;1.70;;;;;;;4.41;79.20;100501.81;5012588;28;20055;-88
2022/01/06 05:32:02;;;;;;;2.53;1.70;;;;;;;4.38;79.77;100497.44;5010141;28;20045;-88
2022/01/06 05:34:27;;;;;;;1.50;1.30;;;;;;;4.35;79.19;100494.78;5004536;28;20032;-88
2022/01/06 05:36:53;;;;;;;3.33;2.20;;;;;;;4.37;79.59;100500.91;5014601;28;20021;-88
2022/01/06 05:39:18;;;;;;;2.63;1.40;;;;;;;4.34;79.74;100513.91;5012137;28;20021;-88
2022/01/06 05:41:45;;;;;;;2.03;1.85;;;;;;;4.24;79.51;100499.84;5009990;28;20049;-88
2022/01/06 05:44:11;;;;;;;1.38;1.27;;;;;;;4.36;79.36;100515.69;5030515;28;20018;-88
2022/01/06 05:46:36;;;;;;;1.83;1.33;;;;;;;4.31;79.77;100511.25;5011361;28;20048;-87
2022/01/06 05:49:02;;;;;;;2.50;1.08;;;;;;;4.35;79.44;100532.22;5010735;28;20028;-88
2022/01/06 05:51:27;;;;;;;1.15;1.05;;;;;;;4.34;79.80;100534.81;5005389;28;20563;-87
2022/01/06 05:53:53;;;;;;;1.80;1.30;;;;;;;4.35;79.24;100547.00;5013954;28;20033;-88
2022/01/06 05:56:20;;;;;;;2.35;1.60;;;;;;;4.35;79.22;100540.06;5011297;28;20025;-88
2022/01/06 05:58:45;;;;;;;1.95;1.73;;;;;;;4.34;79.22;100555.69;5008462;28;20052;-88
2022/01/06 06:01:11;;;;;;;2.53;1.60;;;;;;;4.33;79.74;100557.41;5014765;28;20706;-88
2022/01/06 06:03:36;;;;;;;3.17;2.33;;;;;;;4.35;79.06;100562.66;5010067;28;20060;-88
2022/01/06 06:06:02;;;;;;;2.67;1.38;;;;;;;4.30;79.65;100561.72;5023140;28;20217;-88
2022/01/06 06:08:28;;;;;;;1.92;1.60;;;;;;;4.30;79.48;100561.72;5022227;28;20043;-88
2022/01/06 06:10:54;;;;;;;2.78;1.83;;;;;;;4.31;79.65;100573.91;5031426;28;20037;-87
2022/01/06 06:13:19;;;;;;;3.40;1.63;;;;;;;4.32;79.24;100581.78;5015249;28;20454;-88
2022/01/06 06:15:45;;;;;;;1.75;1.50;;;;;;;4.31;79.77;100592.19;5016865;28;20544;-88
2022/01/06 06:18:12;;;;;;;2.60;1.75;;;;;;;4.29;79.51;100596.50;5016713;28;20091;-88
2022/01/06 06:20:38;;;;;;;1.75;1.65;;;;;;;4.30;79.49;100596.53;5014035;28;20029;-87
2022/01/06 06:23:04;;;;;;;1.77;1.30;;;;;;;4.32;79.72;100607.00;5017152;28;20017;-88
2022/01/06 06:25:29;;;;;;;2.05;1.55;;;;;;;4.29;79.63;100612.16;5014020;28;20060;-88
2022/01/06 06:27:54;;;;;;;1.80;1.63;;;;;;;4.19;79.52;100600.69;5016536;28;20539;-88
2022/01/06 06:30:20;;;;;;;2.28;1.70;;;;;;;4.27;79.65;100619.13;5016396;28;20033;-88
2022/01/06 06:32:46;;;;;;;2.35;1.58;;;;;;;4.30;79.18;100630.47;5017155;28;20030;-88
2022/01/06 06:35:12;;;;;;;1.95;1.60;;;;;;;4.24;79.58;100630.41;5012058;28;20411;-87
2022/01/06 06:37:37;;;;;;;3.53;2.00;;;;;;;4.26;79.28;100633.03;5011707;28;20033;-88
2022/01/06 06:40:04;;;;;;;1.85;1.65;;;;;;;4.26;79.72;100638.25;5017593;28;20025;-88
2022/01/06 06:42:30;;;;;;;2.33;1.63;;;;;;;4.24;78.92;100635.63;5014696;28;20037;-88
2022/01/06 06:44:56;;;;;;;2.63;1.70;;;;;;;4.22;79.29;100643.44;5017312;28;20040;-88
2022/01/06 06:47:21;;;;;;;1.80;1.67;;;;;;;4.14;79.56;100629.38;5016368;28;20040;-88
2022/01/06 06:49:47;;;;;;;1.17;1.08;;;;;;;4.16;79.67;100643.31;5016838;28;20029;-88
2022/01/06 06:52:13;;;;;;;2.40;1.40;;;;;;;4.23;79.68;100655.63;5010198;28;20026;-88
2022/01/06 06:54:39;;;;;;;1.67;1.45;;;;;;;4.22;79.32;100661.69;5013064;28;20088;-88
2022/01/06 06:57:04;;;;;;;2.00;1.35;;;;;;;4.20;79.21;100663.38;5017025;28;20032;-88
2022/01/06 06:59:30;;;;;;;1.50;1.40;;;;;;;4.19;79.15;100664.25;5017304;28;20033;-88
2022/01/06 07:01:56;;;;;;;1.85;1.50;;;;;;;4.16;79.45;100665.91;5016735;28;20526;-88
2022/01/06 07:04:21;;;;;;;1.42;1.30;;;;;;;4.17;78.98;100678.13;5017417;28;20095;-88
2022/01/06 07:06:47;;;;;;;1.60;1.30;;;;;;;4.17;78.95;100684.22;5016659;28;20033;-88
2022/01/06 07:09:13;;;;;;;3.45;1.63;;;;;;;4.09;79.72;100683.22;5017003;28;20013;-88
2022/01/06 07:11:38;;;;;;;1.80;1.33;;;;;;;4.16;79.38;100695.53;5013852;28;20049;-88
2022/01/06 07:14:04;;;;;;;2.20;1.60;;;;;;;4.15;79.10;100709.44;5015920;28;20026;-88
2022/01/06 07:16:30;;;;;;;3.40;1.70;;;;;;;4.14;79.15;100714.63;5021593;28;20592;-88
2022/01/06 07:18:55;;;;;;;2.75;1.40;;;;;;;4.14;79.20;100725.97;5030544;28;20142;-88
2022/01/06 07:21:21;;;;;;;2.17;1.40;;;;;;;4.16;79.20;100736.41;5014469;28;20195;-88
2022/01/06 07:23:46;;;;;;;1.95;1.85;;;;;;;4.12;79.15;100730.25;5013657;28;20029;-88
2022/01/06 07:26:13;;;;;;;1.80;1.50;;;;;;;4.15;79.26;100732.94;5012367;28;20475;-87
2022/01/06 07:28:38;;;;;;;1.45;1.35;;;;;;;4.14;79.70;100733.78;5014373;28;20030;-88
2022/01/06 07:31:04;;;;;;;3.70;1.50;;;;;;;4.12;79.52;100735.47;5010013;28;20483;-88
2022/01/06 07:33:31;;;;;;;1.70;1.48;;;;;;;4.09;79.48;100735.41;5010005;28;20029;-88
2022/01/06 07:35:57;;;;;;;2.55;1.70;;;;;;;4.12;79.44;100745.91;5030099;28;20025;-88
2022/01/06 07:38:23;;;;;;;1.25;1.23;;;;;;;4.11;79.07;100752.88;5026583;28;20036;-88
2022/01/06 07:40:49;;;;;;;2.35;1.80;;;;;;;4.09;79.21;100745.84;5027532;28;20480;-88
2022/01/06 07:43:14;;;;;;;2.22;1.42;;;;;;;4.12;79.00;100756.38;5025825;28;20032;-88
2022/01/06 07:45:40;;;;;;;2.85;1.40;;;;;;;4.01;79.05;100740.50;5013642;28;20045;-88
2022/01/06 07:48:15;;;;;;;2.28;2.08;;;;;;;4.06;79.27;100745.78;5011068;28;20025;-88
2022/01/06 07:50:42;;;;;;;2.33;1.50;;;;;;;4.11;79.29;100759.84;5014196;28;20041;-87
2022/01/06 07:53:07;;;;;;;1.58;1.33;;;;;;;4.12;79.21;100766.81;5012112;28;20025;-88
2022/01/06 07:55:33;;;;;;;3.22;1.60;;;;;;;4.10;79.19;100763.28;5026946;28;20044;-88
2022/01/06 07:57:59;;;;;;;2.72;1.70;;;;;;;4.12;79.19;100774.63;5012563;28;20120;-88
2022/01/06 08:00:25;;;;;;;1.88;1.60;;;;;;;4.15;79.26;100779.91;5010826;28;20124;-88
2022/01/06 08:02:51;;;;;;;1.92;1.60;;;;;;;4.10;79.06;100778.94;5028235;28;20083;-88
2022/01/06 08:05:19;;;;;;;1.60;1.50;;;;;;;4.08;78.80;100778.03;5006847;28;20029;-88
2022/01/06 08:07:45;;;;;;;2.63;1.80;;;;;;;4.09;79.09;100791.13;5011309;28;20083;-88
2022/01/06 08:10:11;;;;;;;4.00;1.63;;;;;;;4.10;78.76;100794.59;5010712;28;20030;-88
2022/01/06 08:12:37;;;;;;;1.75;1.38;;;;;;;4.12;79.19;100805.97;5010271;28;20021;-88
2022/01/06 08:15:03;;;;;;;2.28;1.60;;;;;;;4.09;79.27;100806.78;5009109;28;20030;-88
2022/01/06 08:17:29;;;;;;;3.08;1.70;;;;;;;4.09;79.33;100808.50;5029647;28;20395;-88
2022/01/06 08:19:55;;;;;;;2.17;1.75;;;;;;;4.08;79.16;100817.19;5008612;28;20025;-88
2022/01/06 08:22:20;;;;;;;2.65;2.00;;;;;;;4.00;79.47;100805.72;5015607;28;20629;-88
2022/01/06 08:24:46;;;;;;;2.00;1.67;;;;;;;4.09;79.38;100829.38;5012792;28;20391;-88
2022/01/06 08:27:12;;;;;;;2.45;1.60;;;;;;;4.07;79.09;100828.50;5012405;28;20025;-88
2022/01/06 08:29:38;;;;;;;2.17;1.48;;;;;;;4.08;79.39;100833.75;5010593;28;20030;-88
2022/01/06 08:32:04;;;;;;;3.17;1.60;;;;;;;4.08;79.22;100843.31;5011315;28;20033;-88
2022/01/06 08:34:30;;;;;;;2.33;1.60;;;;;;;4.07;79.31;100838.94;5022991;28;20302;-87
2022/01/06 08:36:56;;;;;;;1.95;1.42;;;;;;;4.07;79.18;100844.16;5012034;28;20022;-88
2022/01/06 08:39:22;;;;;;;2.25;1.50;;;;;;;4.05;79.53;100846.72;5023610;28;20431;-88
2022/01/06 08:41:49;;;;;;;1.48;1.38;;;;;;;4.05;79.09;100844.13;5024794;28;20033;-88
2022/01/06 08:44:15;;;;;;;1.48;1.35;;;;;;;4.00;79.30;100839.66;5012277;28;20113;-88
2022/01/06 08:46:41;;;;;;;2.85;1.38;;;;;;;3.98;79.16;100837.88;5015051;28;20116;-88
2022/01/06 08:49:11;;;;;;;2.50;1.80;;;;;;;4.06;79.38;100851.09;5013223;28;20026;-88
2022/01/06 08:51:40;;;;;;;1.70;1.48;;;;;;;4.05;79.37;100858.91;5011939;28;20025;-88
2022/01/06 08:54:06;;;;;;;4.45;1.60;;;;;;;4.05;79.38;100854.56;5008400;28;20096;-88
2022/01/06 08:56:33;;;;;;;2.00;1.38;;;;;;;4.04;79.06;100860.63;5025549;28;20035;-88
2022/01/06 08:58:59;;;;;;;4.00;1.98;;;;;;;4.06;79.30;100858.03;5010681;28;20029;-88
2022/01/06 09:01:24;;;;;;;1.50;1.40;;;;;;;4.01;78.90;100857.97;5021681;28;20055;-89
2022/01/06 09:03:50;;;;;;;1.40;1.30;;;;;;;4.03;79.09;100865.81;5008502;28;20031;-88
2022/01/06 09:06:16;;;;;;;1.48;1.38;;;;;;;4.06;78.82;100876.31;5025281;28;20031;-89
2022/01/06 09:08:41;;;;;;;1.33;1.23;;;;;;;4.04;79.19;100878.03;5008899;28;20032;-89
2022/01/06 09:11:07;;;;;;;1.95;1.70;;;;;;;4.04;79.10;100886.72;5007847;28;20031;-89
2022/01/06 09:13:33;;;;;;;2.50;1.55;;;;;;;4.03;79.04;100900.63;5027335;28;20039;-89
2022/01/06 09:15:59;;;;;;;2.65;1.67;;;;;;;4.04;79.07;100898.91;5009223;28;20033;-89
2022/01/06 09:18:25;;;;;;;1.42;1.33;;;;;;;4.05;79.13;100903.28;5007107;28;20088;-89
2022/01/06 09:20:51;;;;;;;3.83;1.70;;;;;;;4.06;78.62;100902.41;5011037;28;20451;-89
2022/01/06 09:23:17;;;;;;;3.70;1.92;;;;;;;4.11;78.37;100916.47;5010122;28;20175;-89
2022/01/06 09:25:43;;;;;;;2.38;1.70;;;;;;;4.11;78.79;100917.31;5008992;28;20102;-89
2022/01/06 09:28:09;;;;;;;2.05;1.48;;;;;;;4.12;78.73;100923.44;5008571;28;20471;-89
2022/01/06 09:30:36;;;;;;;7.95;3.38;;;;;;;4.00;75.78;100916.22;5009611;28;20033;-89
2022/01/06 09:36:32;;;;;;;4.07;2.67;;;;;;;4.29;66.07;100920.28;4999818;28;20421;-23
2022/01/06 09:38:59;;;;;;;5.53;3.35;;;;;;;3.29;70.81;100931.09;5003510;28;20160;-23
2022/01/06 09:41:26;;;;;;;3.90;2.47;;;;;;;2.69;72.19;100926.97;4996939;28;20034;-25
2022/01/06 09:43:55;;;;;;;3.08;2.10;;;;;;;2.41;72.81;100931.38;4995438;28;20026;-24
2022/01/06 09:46:21;;;;;;;3.65;2.55;;;;;;;2.38;74.40;100941.72;4994931;28;20041;-26
2022/01/06 09:48:48;;;;;;;2.88;1.83;;;;;;;2.28;75.71;100937.09;4993637;28;20035;-26
2022/01/06 09:51:14;;;;;;;3.47;2.25;;;;;;;2.23;76.30;100936.09;4995154;28;20026;-25
2022/01/06 09:53:41;;;;;;;3.72;2.63;;;;;;;2.21;77.05;100940.34;4989257;28;20034;-26
2022/01/06 09:56:07;;;;;;;3.83;1.98;;;;;;;2.17;77.60;100948.06;4991471;28;20026;-26
2022/01/06 09:58:33;;;;;;;3.65;2.47;;;;;;;2.14;77.77;100937.56;4994569;28;20077;-27
2022/01/06 10:00:59;;;;;;;4.78;2.50;;;;;;;2.12;78.34;100939.25;4996927;28;20117;-25
2022/01/06 10:03:46;;;;;;;3.38;1.88;;;;;;;2.13;78.09;100951.41;4991609;28;20036;-23
2022/01/06 10:06:18;;;;;;;4.53;2.50;;;;;;;2.12;78.74;100949.66;4991507;28;20037;-23
2022/01/06 10:08:53;;;;;;;2.80;2.30;;;;;;;2.14;78.92;100953.16;4993562;28;20440;-22
2022/01/06 10:11:21;;;;;;;4.28;2.58;;;;;;;2.15;78.81;100947.16;4996001;28;20033;-23
2022/01/06 10:14:08;;;;;;;3.22;2.08;;;;;;;2.18;79.21;100949.84;4993735;28;20420;-23
2022/01/06 10:16:35;;;;;;;3.90;2.13;;;;;;;2.21;79.39;100951.66;4992449;28;20084;-22
2022/01/06 10:19:06;;;;;;;4.18;2.20;;;;;;;2.24;79.13;100958.66;4990579;28;20030;-23
2022/01/06 10:21:37;;;;;;;2.58;2.38;;;;;;;2.26;79.09;100955.25;4989625;28;20027;-23
2022/01/06 10:24:22;;;;;;;3.23;2.67;;;;;;;2.28;78.94;100950.09;4996919;28;20568;-23
2022/01/06 10:26:57;;;;;;;2.65;2.40;;;;;;;2.29;78.72;100944.94;4992448;28;20397;-23
2022/01/06 10:29:28;;;;;;;5.15;2.30;;;;;;;2.30;78.50;100948.41;4994528;28;20094;-22
2022/01/06 10:32:02;;;;;;;3.80;1.85;;;;;;;2.33;78.39;100953.72;4989682;28;20106;-22
2022/01/06 10:34:40;;;;;;;4.50;2.60;;;;;;;2.35;77.70;100952.06;4995823;28;20038;-22
2022/01/06 10:37:22;;;;;;;3.08;2.40;;;;;;;2.36;78.22;100960.72;4993574;28;20033;-22
2022/01/06 10:39:50;;;;;;;5.78;2.80;;;;;;;2.40;78.75;100957.41;4995152;28;20045;-21
2022/01/06 10:42:15;;;;;;;3.70;2.33;;;;;;;2.40;78.84;100954.81;4987949;28;20050;-22
2022/01/06 10:45:06;;;;;;;5.10;2.65;;;;;;;2.43;78.54;100963.56;4991359;28;20053;-21
2022/01/06 10:47:40;;;;;;;4.38;2.10;;;;;;;2.48;78.72;100968.91;4984056;28;20034;-22
2022/01/06 10:50:16;;;;;;;7.22;2.05;;;;;;;2.49;78.21;100973.28;4978909;28;20113;-21
2022/01/06 10:52:45;;;;;;;1.92;1.70;;;;;;;2.54;78.63;100978.63;4975985;28;20038;-21
2022/01/06 10:55:18;;;;;;;5.13;1.83;;;;;;;2.56;78.84;100980.44;4978808;28;20077;-21
2022/01/06 10:57:50;;;;;;;5.60;1.70;;;;;;;2.61;78.65;100980.56;4978497;28;20034;-22
2022/01/06 11:00:18;;;;;;;2.92;2.17;;;;;;;2.64;78.63;100991.06;4979917;28;20061;-22
2022/01/06 11:02:43;;;;;;;5.30;2.10;;;;;;;2.69;78.96;100989.47;4977665;28;20378;-22
2022/01/06 11:05:09;;;;;;;4.70;2.50;;;;;;;2.71;79.28;100980.81;4980340;28;20037;-22
2022/01/06 11:07:35;;;;;;;3.53;2.90;;;;;;;2.75;78.78;100990.47;4979873;28;20030;-22
2022/01/06 11:10:05;;;;;;;5.50;3.42;;;;;;;2.81;78.84;100998.47;4977179;28;20390;-21
2022/01/06 11:12:33;;;;;;;4.22;3.45;;;;;;;2.84;78.58;100998.56;4978483;28;20038;-22
2022/01/06 11:15:00;;;;;;;5.38;4.10;;;;;;;2.85;78.48;100995.13;4978259;28;20033;-22
2022/01/06 11:17:26;;;;;;;5.32;3.40;;;;;;;2.90;78.39;100997.88;4979329;28;20125;-22
2022/01/06 11:19:51;;;;;;;4.63;3.28;;;;;;;2.91;78.32;101004.84;4980147;28;20102;-21
2022/01/06 11:22:23;;;;;;;4.88;3.20;;;;;;;2.92;78.01;101003.97;4979386;28;20030;-22
2022/01/06 11:24:57;;;;;;;3.83;2.60;;;;;;;2.98;78.26;101005.88;4978069;28;20026;-22
2022/01/06 11:27:34;;;;;;;6.25;3.45;;;;;;;2.95;78.42;101004.97;4976737;28;20035;-21
2022/01/06 11:30:14;;;;;;;5.25;3.08;;;;;;;2.98;78.41;101005.88;4982534;28;20029;-21
2022/01/06 11:32:44;;;;;;;3.70;2.90;;;;;;;3.02;78.23;100999.91;4976346;28;20025;-22
2022/01/06 11:35:19;;;;;;;3.83;3.00;;;;;;;3.05;78.09;101010.41;4979145;28;20069;-22
2022/01/06 11:37:46;;;;;;;3.42;3.08;;;;;;;3.03;77.45;101012.97;4975846;28;20027;-22
2022/01/06 11:40:13;;;;;;;4.90;3.05;;;;;;;3.07;77.76;101016.56;4976501;28;20467;-21
2022/01/06 11:42:39;;;;;;;2.88;2.30;;;;;;;3.10;77.93;101016.63;4978818;28;20389;-21
2022/01/06 11:45:06;;;;;;;4.28;2.70;;;;;;;3.08;77.97;101018.31;4981015;28;20030;-21